Time;durP1;ratioP1;P1;durP2;ratioP2;P2;SDS_P1;SDS_P2;PMS_P1;PMS_P2;Temp;Humidity;BMP_temperature;BMP_pressure;BME280_temperature;BME280_humidity;BME280_pressure;Samples;Min_cycle;Max_cycle;Signal;HPM_P1;HPM_P2
2022/12/24 00:01:00;;;;;;;24.50;13.95;;;;;;;2.25;100.00;100263.30;1712837;83;20966;-59
2022/12/24 00:03:27;;;;;;;25.43;15.10;;;;;;;2.25;100.00;100258.16;1708224;83;20924;-59
2022/12/24 00:05:55;;;;;;;27.60;14.70;;;;;;;2.25;100.00;100256.86;1701046;84;21147;-58
2022/12/24 00:08:22;;;;;;;24.52;14.05;;;;;;;2.26;100.00;100256.39;1699967;84;20988;-60
2022/12/24 00:10:53;;;;;;;27.37;15.15;;;;;;;2.26;100.00;100251.25;1701224;84;21589;-58
2022/12/24 00:13:21;;;;;;;27.13;14.87;;;;;;;2.26;100.00;100251.25;1701675;84;21486;-59
2022/12/24 00:15:49;;;;;;;26.65;14.95;;;;;;;2.28;100.00;100252.75;1701210;84;21063;-59
2022/12/24 00:18:16;;;;;;;22.10;13.72;;;;;;;2.30;100.00;100246.18;1700497;83;21214;-63
2022/12/24 00:20:49;;;;;;;26.87;15.58;;;;;;;2.31;100.00;100249.92;1700541;83;21606;-58
2022/12/24 00:23:16;;;;;;;26.70;15.00;;;;;;;2.32;100.00;100238.69;1701181;83;20968;-59
2022/12/24 00:25:44;;;;;;;25.37;15.08;;;;;;;2.33;100.00;100241.59;1700992;84;20952;-58
2022/12/24 00:28:11;;;;;;;26.42;15.13;;;;;;;2.35;100.00;100238.88;1700996;83;21122;-62
2022/12/24 00:30:39;;;;;;;27.77;16.05;;;;;;;2.36;100.00;100234.09;1700391;84;21745;-59
2022/12/24 00:33:06;;;;;;;32.10;16.60;;;;;;;2.37;100.00;100233.14;1700963;83;21819;-60
2022/12/24 00:35:36;;;;;;;26.77;14.63;;;;;;;2.36;100.00;100230.24;1700680;84;21000;-60
2022/12/24 00:38:05;;;;;;;;;;;;;;;2.37;100.00;100232.67;1653139;85;20901;-63
2022/12/24 00:40:32;;;;;;;29.90;15.30;;;;;;;2.39;100.00;100229.98;1650116;86;20151;-59
2022/12/24 00:42:59;;;;;;;31.60;15.63;;;;;;;2.38;100.00;100227.86;1642789;87;21273;-58
2022/12/24 00:45:26;;;;;;;33.60;16.60;;;;;;;2.40;100.00;100223.89;1650141;86;21048;-59
2022/12/24 00:47:54;;;;;;;28.38;15.18;;;;;;;2.40;100.00;100222.12;1642108;87;20993;-66
2022/12/24 00:50:21;;;;;;;27.22;15.13;;;;;;;2.45;100.00;100225.58;1649592;85;20964;-60
2022/12/24 00:52:48;;;;;;;25.92;15.65;;;;;;;2.44;100.00;100220.11;1642539;87;21393;-60
2022/12/24 00:55:16;;;;;;;28.32;16.00;;;;;;;2.40;100.00;100218.27;1650074;85;21154;-59
2022/12/24 00:57:43;;;;;;;27.98;16.25;;;;;;;2.40;100.00;100221.31;1642649;86;21546;-59
2022/12/24 01:00:12;;;;;;;33.00;16.23;;;;;;;2.42;100.00;100216.84;1649945;85;21020;-59
2022/12/24 01:02:39;;;;;;;28.15;15.60;;;;;;;2.44;100.00;100211.09;1642174;87;21123;-59
2022/12/24 01:05:10;;;;;;;31.52;16.52;;;;;;;2.43;100.00;100213.34;1697021;83;20983;-59
2022/12/24 01:07:42;;;;;;;27.50;15.65;;;;;;;2.43;100.00;100215.91;1700603;84;21544;-58
2022/12/24 01:10:10;;;;;;;28.45;15.75;;;;;;;2.47;100.00;100212.12;1700046;84;21003;-63
2022/12/24 01:12:37;;;;;;;32.05;15.05;;;;;;;2.50;100.00;100209.75;1672999;84;21046;-59
2022/12/24 01:15:05;;;;;;;28.67;15.90;;;;;;;2.50;100.00;100205.44;1673165;85;21474;-58
2022/12/24 01:17:33;;;;;;;30.30;16.27;;;;;;;2.51;100.00;100201.91;1672965;85;21064;-58
2022/12/24 01:20:01;;;;;;;26.77;15.45;;;;;;;2.51;100.00;100205.77;1672221;85;21933;-59
2022/12/24 01:22:28;;;;;;;28.35;15.40;;;;;;;2.54;100.00;100207.25;1672104;85;21142;-58
2022/12/24 01:24:55;;;;;;;29.10;15.98;;;;;;;2.55;100.00;100198.12;1672657;85;21444;-59
2022/12/24 01:27:23;;;;;;;29.35;16.45;;;;;;;2.57;100.00;100201.84;1672707;85;21078;-58
2022/12/24 01:29:50;;;;;;;30.45;16.35;;;;;;;2.57;100.00;100191.07;1672618;85;21533;-59
2022/12/24 01:32:17;;;;;;;31.42;16.85;;;;;;;2.59;100.00;100189.67;1672474;85;21919;-60
2022/12/24 01:34:44;;;;;;;27.35;14.90;;;;;;;2.59;100.00;100187.91;1672497;85;20956;-58
2022/12/24 01:37:13;;;;;;;30.60;16.42;;;;;;;2.59;100.00;100187.91;1672896;85;21074;-58
2022/12/24 01:39:40;;;;;;;27.75;16.10;;;;;;;2.63;100.00;100189.74;1672709;85;20968;-59
2022/12/24 01:45:46;;;;;;;30.00;16.37;;;;;;;2.65;100.00;100188.67;1672575;85;21121;-64
2022/12/24 01:48:45;;;;;;;32.58;16.73;;;;;;;2.67;100.00;100182.91;1672922;85;21095;-61
2022/12/24 01:51:37;;;;;;;29.63;15.60;;;;;;;2.70;100.00;100186.17;1672616;85;21055;-61
2022/12/24 01:54:10;;;;;;;;;;;;;;;2.68;100.00;100183.23;1656514;85;20957;-60
2022/12/24 01:56:40;;;;;;;33.48;16.87;;;;;;;2.71;100.00;100191.65;1700061;84;20608;-62
2022/12/24 01:59:09;;;;;;;32.28;16.32;;;;;;;2.70;100.00;100183.12;1700896;83;21815;-60
2022/12/24 02:01:37;;;;;;;31.10;16.97;;;;;;;2.68;100.00;100185.80;1699878;83;21410;-62
2022/12/24 02:04:38;;;;;;;31.00;16.12;;;;;;;2.67;100.00;100181.61;1700363;84;21035;-60
2022/12/24 02:07:05;;;;;;;32.45;17.27;;;;;;;2.65;100.00;100177.53;1672583;84;21015;-63
2022/12/24 02:09:33;;;;;;;30.08;16.60;;;;;;;2.64;100.00;100174.16;1672630;85;21012;-59
2022/12/24 02:12:00;;;;;;;26.10;15.43;;;;;;;2.65;100.00;100165.95;1672899;85;21227;-59
2022/12/24 02:14:28;;;;;;;33.20;16.87;;;;;;;2.65;100.00;100165.52;1671899;85;20952;-60
2022/12/24 02:17:20;;;;;;;29.27;16.97;;;;;;;2.64;100.00;100165.63;1673123;85;21056;-59
2022/12/24 02:20:14;;;;;;;30.88;16.17;;;;;;;2.63;100.00;100168.67;1672182;85;21079;-63
2022/12/24 02:22:52;;;;;;;37.30;17.50;;;;;;;2.62;100.00;100169.63;1672683;85;21031;-60
2022/12/24 02:25:57;;;;;;;30.45;17.70;;;;;;;2.63;100.00;100173.83;1672218;85;22554;-60
2022/12/24 02:28:46;;;;;;;30.25;16.80;;;;;;;2.63;100.00;100175.11;1672389;85;21984;-63
2022/12/24 02:31:30;;;;;;;30.08;15.95;;;;;;;2.63;100.00;100178.16;1672261;85;20960;-63
2022/12/24 02:34:05;;;;;;;28.98;16.48;;;;;;;2.65;100.00;100182.23;1672575;85;21059;-63
2022/12/24 02:36:41;;;;;;;29.05;17.00;;;;;;;2.64;100.00;100181.88;1668425;85;21083;-59
2022/12/24 02:39:11;;;;;;;30.05;14.70;;;;;;;2.66;100.00;100188.20;1672483;85;22532;-59
2022/12/24 02:44:30;;;;;;;30.17;16.45;;;;;;;2.71;100.00;100183.92;1672400;85;20988;-61
2022/12/24 02:46:58;;;;;;;31.90;17.62;;;;;;;2.72;100.00;100178.63;1672874;85;21067;-59
2022/12/24 02:49:25;;;;;;;30.97;18.32;;;;;;;2.75;100.00;100187.86;1672957;85;21020;-59
2022/12/24 02:51:52;;;;;;;32.83;17.75;;;;;;;2.76;100.00;100192.05;1672621;85;21534;-59
2022/12/24 02:54:19;;;;;;;25.97;14.25;;;;;;;2.77;100.00;100194.98;1672323;85;21369;-60
2022/12/24 02:57:13;;;;;;;27.00;16.15;;;;;;;2.79;100.00;100191.79;1672987;85;21572;-59
2022/12/24 02:59:54;;;;;;;30.70;17.40;;;;;;;2.79;100.00;100191.31;1672374;85;21490;-59
2022/12/24 03:02:42;;;;;;;28.47;17.40;;;;;;;2.80;100.00;100195.50;1672821;85;21063;-59
2022/12/24 03:05:43;;;;;;;28.47;15.60;;;;;;;2.80;100.00;100189.06;1676853;85;21499;-60
2022/12/24 03:08:32;;;;;;;33.53;17.05;;;;;;;2.81;100.00;100189.43;1679713;84;21540;-59
2022/12/24 03:11:11;;;;;;;32.65;16.32;;;;;;;2.81;100.00;100192.48;1679772;85;21051;-64
2022/12/24 03:13:40;;;;;;;26.27;16.12;;;;;;;2.81;100.00;100187.33;1679842;84;21051;-61
2022/12/24 03:16:09;;;;;;;28.92;16.23;;;;;;;2.81;100.00;100194.58;1679538;85;20951;-61
2022/12/24 03:18:41;;;;;;;29.72;16.02;;;;;;;2.82;100.00;100191.05;1680006;84;21832;-61
2022/12/24 03:21:27;;;;;;;29.15;16.55;;;;;;;2.83;100.00;100197.81;1679940;85;21544;-58
2022/12/24 03:23:55;;;;;;;31.82;15.80;;;;;;;2.84;100.00;100193.47;1679586;85;20920;-59
2022/12/24 03:26:22;;;;;;;25.95;16.05;;;;;;;2.86;100.00;100192.87;1679484;85;21044;-63
2022/12/24 03:28:49;;;;;;;29.75;15.35;;;;;;;2.86;100.00;100194.98;1657329;85;21035;-59
2022/12/24 03:31:17;;;;;;;28.20;15.88;;;;;;;2.88;100.00;100187.14;1679582;85;21171;-63
2022/12/24 03:33:44;;;;;;;26.75;15.53;;;;;;;2.87;100.00;100188.88;1679311;85;21000;-60
2022/12/24 03:36:12;;;;;;;28.40;15.93;;;;;;;2.86;100.00;100191.59;1679891;84;21003;-59
2022/12/24 03:38:39;;;;;;;25.80;15.32;;;;;;;2.86;100.00;100187.73;1679316;85;21094;-64
2022/12/24 03:41:07;;;;;;;28.77;15.58;;;;;;;2.86;100.00;100187.73;1679804;85;20948;-59
2022/12/24 03:43:35;;;;;;;28.75;15.90;;;;;;;2.84;100.00;100193.03;1678960;85;21160;-58
2022/12/24 03:46:05;;;;;;;30.60;16.07;;;;;;;2.85;100.00;100188.69;1680007;85;21731;-59
2022/12/24 03:48:34;;;;;;;25.85;14.83;;;;;;;2.83;100.00;100188.80;1679634;85;21055;-59
2022/12/24 03:51:01;;;;;;;27.10;15.83;;;;;;;2.84;100.00;100182.73;1679122;85;20999;-63
2022/12/24 03:53:30;;;;;;;28.67;15.58;;;;;;;2.85;100.00;100184.83;1679393;84;21066;-58
2022/12/24 03:55:58;;;;;;;26.87;15.03;;;;;;;2.84;100.00;100188.33;1679556;85;21070;-60
2022/12/24 03:58:25;;;;;;;31.05;16.77;;;;;;;2.83;100.00;100194.43;1679887;85;21003;-59
2022/12/24 04:00:53;;;;;;;37.67;17.27;;;;;;;2.84;100.00;100201.20;1679237;85;21094;-59
2022/12/24 04:03:20;;;;;;;31.00;16.95;;;;;;;2.85;100.00;100195.12;1679290;84;21552;-59
2022/12/24 04:05:48;;;;;;;23.25;13.83;;;;;;;2.87;100.00;100189.34;1680065;85;21474;-60
2022/12/24 04:08:16;;;;;;;27.95;15.32;;;;;;;2.88;100.00;100202.11;1679783;85;21242;-59
2022/12/24 04:10:43;;;;;;;32.50;16.97;;;;;;;2.87;100.00;100199.17;1679584;85;21062;-60
2022/12/24 04:13:10;;;;;;;45.35;24.95;;;;;;;2.89;100.00;100201.62;1679280;85;20995;-59
2022/12/24 04:15:38;;;;;;;39.98;22.37;;;;;;;2.89;100.00;100206.78;1680193;85;22357;-59
2022/12/24 04:18:05;;;;;;;31.68;17.15;;;;;;;2.87;100.00;100206.89;1680253;85;20924;-60
2022/12/24 04:20:33;;;;;;;26.27;14.55;;;;;;;2.85;100.00;100198.98;1680275;85;21167;-60
2022/12/24 04:23:00;;;;;;;28.52;14.47;;;;;;;2.84;100.00;100199.91;1679133;85;21014;-63
2022/12/24 04:25:27;;;;;;;29.10;14.18;;;;;;;2.85;100.00;100196.41;1680171;84;21987;-58
2022/12/24 04:27:54;;;;;;;24.37;13.53;;;;;;;2.84;100.00;100197.34;1680033;85;20963;-58
2022/12/24 04:30:23;;;;;;;26.85;15.38;;;;;;;2.83;100.00;100193.14;1679939;84;21054;-59
2022/12/24 04:32:51;;;;;;;25.17;14.07;;;;;;;2.84;100.00;100193.47;1679208;85;21309;-63
2022/12/24 04:35:18;;;;;;;26.90;15.68;;;;;;;2.84;100.00;100204.61;1679179;85;21097;-60
2022/12/24 04:37:45;;;;;;;26.10;14.75;;;;;;;2.85;100.00;100199.80;1679903;85;21107;-58
2022/12/24 04:40:13;;;;;;;25.32;14.83;;;;;;;2.87;100.00;100198.36;1679676;85;21044;-59
2022/12/24 04:42:40;;;;;;;22.70;14.45;;;;;;;2.85;100.00;100204.13;1678996;85;21079;-60
2022/12/24 04:45:09;;;;;;;24.20;13.70;;;;;;;2.84;100.00;100214.06;1679558;85;21341;-63
2022/12/24 04:47:36;;;;;;;24.43;14.25;;;;;;;2.81;100.00;100215.65;1679574;85;21422;-59
2022/12/24 04:52:48;;;;;;;52.40;28.07;;;;;;;2.75;100.00;100207.97;1650581;86;22195;-59
2022/12/24 04:55:15;;;;;;;31.95;18.00;;;;;;;2.72;100.00;100208.23;1650274;86;21009;-59
2022/12/24 04:57:43;;;;;;;40.92;22.90;;;;;;;2.70;100.00;100205.00;1650705;86;21513;-59
2022/12/24 05:00:11;;;;;;;29.55;16.57;;;;;;;2.69;100.00;100211.09;1650263;86;21601;-59
2022/12/24 05:02:38;;;;;;;28.90;14.85;;;;;;;2.67;100.00;100211.69;1650394;86;20914;-59
2022/12/24 05:05:08;;;;;;;30.82;14.63;;;;;;;2.64;100.00;100213.23;1649741;86;20977;-61
2022/12/24 05:07:35;;;;;;;26.07;15.43;;;;;;;2.59;100.00;100211.06;1650873;86;22095;-60
2022/12/24 05:10:03;;;;;;;25.20;14.25;;;;;;;2.56;100.00;100208.75;1650635;86;21237;-59
2022/12/24 05:12:30;;;;;;;24.72;14.43;;;;;;;2.54;100.00;100215.80;1650032;86;21034;-64
2022/12/24 05:14:58;;;;;;;29.65;15.00;;;;;;;2.53;100.00;100220.59;1650270;86;21056;-63
2022/12/24 05:17:25;;;;;;;28.38;16.00;;;;;;;2.53;100.00;100221.88;1650236;86;21144;-59
2022/12/24 05:19:52;;;;;;;30.62;17.48;;;;;;;2.53;100.00;100220.59;1650711;86;21088;-60
2022/12/24 05:27:53;;;;;;;27.90;13.90;;;;;;;2.52;100.00;100218.16;1650914;86;21474;-60
2022/12/24 05:30:20;;;;;;;24.82;13.60;;;;;;;2.52;100.00;100215.11;1650512;86;20997;-64
2022/12/24 05:32:47;;;;;;;25.12;14.05;;;;;;;2.53;100.00;100221.88;1651522;86;21510;-59
2022/12/24 05:35:15;;;;;;;28.90;14.10;;;;;;;2.55;100.00;100221.28;1651296;86;21208;-59
2022/12/24 05:37:43;;;;;;;24.15;14.68;;;;;;;2.55;100.00;100217.90;1651293;86;21037;-59
2022/12/24 05:40:10;;;;;;;27.98;14.30;;;;;;;2.55;100.00;100217.42;1651135;86;21060;-64
2022/12/24 05:42:37;;;;;;;26.17;13.88;;;;;;;2.56;100.00;100213.09;1650786;86;21029;-59
2022/12/24 05:45:07;;;;;;;27.70;14.58;;;;;;;2.56;100.00;100211.33;1651248;86;21101;-60
2022/12/24 05:47:34;;;;;;;27.95;15.08;;;;;;;2.62;100.00;100211.28;1651229;86;21915;-60
2022/12/24 05:50:02;;;;;;;23.92;14.43;;;;;;;2.66;100.00;100221.65;1650882;86;21567;-61
2022/12/24 05:52:29;;;;;;;26.17;14.85;;;;;;;2.68;100.00;100212.02;1655590;86;22014;-60
2022/12/24 05:54:56;;;;;;;24.40;14.18;;;;;;;2.70;100.00;100226.06;1658231;86;21129;-59
2022/12/24 05:57:24;;;;;;;25.27;14.00;;;;;;;2.71;100.00;100231.54;1658497;86;21093;-59
2022/12/24 05:59:51;;;;;;;28.70;15.20;;;;;;;2.69;100.00;100226.54;1658537;86;21348;-60
2022/12/24 06:02:18;;;;;;;26.12;14.35;;;;;;;2.70;100.00;100233.78;1657343;86;21006;-60
2022/12/24 06:04:46;;;;;;;22.37;13.13;;;;;;;2.72;100.00;100229.30;1658649;86;21094;-59
2022/12/24 06:07:14;;;;;;;26.93;13.95;;;;;;;2.73;100.00;100230.92;1657946;86;21535;-60
2022/12/24 06:09:41;;;;;;;25.68;14.58;;;;;;;2.76;100.00;100231.47;1658068;86;21099;-59
2022/12/24 06:12:08;;;;;;;23.42;13.00;;;;;;;2.78;100.00;100232.64;1657444;86;21864;-61
2022/12/24 06:14:35;;;;;;;26.48;14.93;;;;;;;2.79;100.00;100239.41;1658038;86;21091;-59
2022/12/24 06:17:03;;;;;;;26.23;13.25;;;;;;;2.80;100.00;100239.27;1658039;86;20992;-59
2022/12/24 06:19:30;;;;;;;25.35;14.20;;;;;;;2.82;100.00;100246.87;1657964;86;21037;-59
2022/12/24 06:21:57;;;;;;;27.98;14.45;;;;;;;2.84;100.00;100244.96;1658217;86;21614;-63
2022/12/24 06:24:24;;;;;;;26.33;14.73;;;;;;;2.86;100.00;100248.23;1657955;86;21598;-59
2022/12/24 06:26:52;;;;;;;26.77;14.55;;;;;;;2.99;100.00;100245.39;1658852;86;21099;-59
2022/12/24 06:29:19;;;;;;;27.25;13.68;;;;;;;3.00;100.00;100242.70;1658720;86;21317;-59
2022/12/24 06:31:46;;;;;;;25.62;14.60;;;;;;;3.09;100.00;100248.80;1658622;86;21057;-59
2022/12/24 06:34:17;;;;;;;27.48;12.68;;;;;;;3.15;100.00;100240.06;1658025;86;20965;-59
2022/12/24 06:36:44;;;;;;;28.85;13.68;;;;;;;3.21;100.00;100240.45;1658251;86;21182;-59
2022/12/24 06:39:12;;;;;;;26.62;14.65;;;;;;;3.29;100.00;100243.16;1658219;86;21025;-60
2022/12/24 06:41:41;;;;;;;25.25;13.68;;;;;;;3.34;100.00;100238.44;1658342;86;21026;-60
2022/12/24 06:44:08;;;;;;;26.85;13.93;;;;;;;3.37;100.00;100236.84;1657517;86;21570;-62
2022/12/24 06:46:36;;;;;;;23.65;14.03;;;;;;;3.35;100.00;100234.90;1657972;86;21503;-59
2022/12/24 06:49:03;;;;;;;24.80;13.65;;;;;;;3.38;100.00;100237.20;1658353;86;21205;-61
2022/12/24 06:51:30;;;;;;;23.38;13.18;;;;;;;3.44;100.00;100236.64;1657223;86;21076;-59
2022/12/24 06:53:58;;;;;;;25.88;13.38;;;;;;;3.47;100.00;100235.56;1653685;86;21057;-63
2022/12/24 06:56:25;;;;;;;27.55;13.72;;;;;;;3.49;100.00;100235.77;1653322;86;20969;-59
2022/12/24 06:58:52;;;;;;;25.97;14.25;;;;;;;3.50;100.00;100235.30;1654197;86;20998;-60
2022/12/24 07:01:20;;;;;;;24.02;13.65;;;;;;;3.51;100.00;100232.56;1654423;86;21313;-59
2022/12/24 07:03:47;;;;;;;22.45;13.43;;;;;;;3.53;100.00;100233.26;1654129;86;21087;-59
2022/12/24 07:06:22;;;;;;;23.25;12.37;;;;;;;3.55;100.00;100235.20;1653186;86;21087;-59
2022/12/24 07:08:49;;;;;;;23.77;13.93;;;;;;;3.53;100.00;100239.70;1653142;86;21527;-59
2022/12/24 07:11:17;;;;;;;26.73;13.90;;;;;;;3.55;100.00;100242.94;1653917;86;21061;-59
2022/12/24 07:13:45;;;;;;;23.67;12.82;;;;;;;3.54;100.00;100241.80;1653528;86;21175;-63
2022/12/24 07:16:13;;;;;;;27.80;14.65;;;;;;;3.53;100.00;100241.47;1652661;86;21439;-60
2022/12/24 07:18:40;;;;;;;30.05;14.85;;;;;;;3.51;100.00;100239.48;1653534;86;21499;-59
2022/12/24 07:21:08;;;;;;;21.57;12.98;;;;;;;3.51;100.00;100235.14;1653357;86;20930;-59
2022/12/24 07:23:35;;;;;;;25.05;14.33;;;;;;;3.53;100.00;100234.55;1653114;86;20970;-61
2022/12/24 07:26:03;;;;;;;29.32;13.70;;;;;;;3.57;100.00;100246.20;1652688;86;21305;-62
2022/12/24 07:28:31;;;;;;;24.98;13.83;;;;;;;3.60;100.00;100247.70;1653413;86;22138;-59
2022/12/24 07:30:58;;;;;;;25.00;14.28;;;;;;;3.65;100.00;100247.61;1653498;86;20914;-59
2022/12/24 07:33:26;;;;;;;25.45;13.55;;;;;;;3.68;100.00;100243.14;1653337;86;21126;-59
2022/12/24 07:36:02;;;;;;;28.95;14.98;;;;;;;3.70;100.00;100242.03;1652779;86;21025;-60
2022/12/24 07:38:30;;;;;;;23.90;13.80;;;;;;;3.73;100.00;100233.22;1653272;86;21187;-59
2022/12/24 07:40:57;;;;;;;21.33;11.95;;;;;;;3.77;100.00;100241.01;1653462;86;21014;-59
2022/12/24 07:43:25;;;;;;;28.52;14.60;;;;;;;3.75;100.00;100233.42;1653599;86;21555;-59
2022/12/24 07:45:56;;;;;;;24.65;14.90;;;;;;;3.74;100.00;100234.36;1652728;86;21033;-60
2022/12/24 07:48:25;;;;;;;24.75;14.60;;;;;;;3.70;100.00;100237.36;1653238;86;21107;-59
2022/12/24 07:50:53;;;;;;;25.48;13.40;;;;;;;3.65;100.00;100238.59;1653473;86;21270;-59
2022/12/24 07:53:21;;;;;;;26.73;14.15;;;;;;;3.60;100.00;100232.23;1653279;86;21065;-59
2022/12/24 07:55:48;;;;;;;27.37;15.60;;;;;;;3.58;100.00;100235.41;1653299;86;21005;-63
2022/12/24 07:58:15;;;;;;;93.00;41.98;;;;;;;3.53;100.00;100228.10;1652947;86;21876;-59
2022/12/24 08:00:43;;;;;;;30.95;17.60;;;;;;;3.54;100.00;100232.78;1653580;86;21080;-60
2022/12/24 08:03:17;;;;;;;28.35;15.03;;;;;;;3.57;100.00;100221.72;1653628;86;21177;-59
2022/12/24 08:05:44;;;;;;;32.13;14.38;;;;;;;3.60;100.00;100225.80;1651991;86;20954;-60
2022/12/24 08:08:11;;;;;;;27.07;13.83;;;;;;;3.60;100.00;100222.73;1653254;86;21084;-59
2022/12/24 08:10:44;;;;;;;26.85;13.90;;;;;;;3.61;100.00;100228.70;1653523;86;21045;-59
2022/12/24 08:13:11;;;;;;;28.20;15.30;;;;;;;3.63;100.00;100221.14;1653272;86;21503;-66
2022/12/24 08:15:38;;;;;;;26.95;14.78;;;;;;;3.68;100.00;100226.39;1652816;86;22958;-59
2022/12/24 08:18:06;;;;;;;28.17;14.95;;;;;;;3.69;100.00;100219.80;1652549;86;21314;-62
2022/12/24 08:20:33;;;;;;;29.45;15.90;;;;;;;3.73;100.00;100217.27;1653290;86;21855;-59
2022/12/24 08:23:01;;;;;;;34.43;15.85;;;;;;;3.74;100.00;100215.50;1653141;86;20949;-60
2022/12/24 08:25:28;;;;;;;30.27;15.70;;;;;;;3.76;100.00;100216.19;1652654;86;20941;-65
2022/12/24 08:27:56;;;;;;;29.57;16.02;;;;;;;3.76;100.00;100211.03;1653315;86;22108;-64
2022/12/24 08:30:23;;;;;;;30.00;15.88;;;;;;;3.79;100.00;100214.59;1653004;86;21533;-61
2022/12/24 08:32:51;;;;;;;31.15;14.78;;;;;;;3.85;100.00;100212.28;1653452;86;21041;-59
2022/12/24 08:35:18;;;;;;;25.17;14.28;;;;;;;3.92;100.00;100215.59;1653311;86;21069;-59
2022/12/24 08:37:45;;;;;;;23.80;14.87;;;;;;;3.94;100.00;100213.67;1652722;86;20985;-60
2022/12/24 08:40:13;;;;;;;25.25;15.10;;;;;;;3.95;100.00;100217.41;1652751;86;21268;-61
2022/12/24 08:42:40;;;;;;;25.23;13.30;;;;;;;3.97;100.00;100207.75;1653184;86;21961;-60
2022/12/24 08:45:10;;;;;;;26.85;14.90;;;;;;;3.95;100.00;100205.81;1653132;86;21033;-60
2022/12/24 08:47:38;;;;;;;24.67;13.55;;;;;;;3.94;100.00;100209.34;1652658;86;20957;-61
2022/12/24 08:50:06;;;;;;;25.50;16.10;;;;;;;3.90;100.00;100208.81;1653522;86;21515;-60
2022/12/24 08:52:34;;;;;;;26.85;15.85;;;;;;;3.81;100.00;100203.67;1653015;86;21211;-60
2022/12/24 08:55:01;;;;;;;25.10;15.80;;;;;;;3.82;100.00;100202.72;1653475;86;21555;-59
2022/12/24 08:57:29;;;;;;;29.60;17.52;;;;;;;3.84;100.00;100198.25;1653545;86;21108;-62
2022/12/24 08:59:57;;;;;;;27.13;15.90;;;;;;;3.81;100.00;100195.95;1652893;86;20977;-59
2022/12/24 09:02:24;;;;;;;27.90;16.27;;;;;;;3.81;100.00;100191.59;1652992;86;21071;-64
2022/12/24 09:04:51;;;;;;;32.88;20.48;;;;;;;3.85;100.00;100194.70;1653118;86;21187;-59
2022/12/24 09:07:20;;;;;;;30.72;18.30;;;;;;;3.85;100.00;100193.42;1653061;86;21585;-59
2022/12/24 09:09:48;;;;;;;27.15;15.08;;;;;;;3.85;100.00;100190.36;1653125;86;21091;-60
2022/12/24 09:12:17;;;;;;;25.23;14.98;;;;;;;3.87;100.00;100184.59;1653076;86;21106;-58
2022/12/24 09:14:44;;;;;;;27.77;14.55;;;;;;;3.88;100.00;100184.92;1652390;86;21099;-61
2022/12/24 09:17:11;;;;;;;26.90;13.43;;;;;;;3.87;100.00;100182.50;1653199;86;21179;-61
2022/12/24 09:19:38;;;;;;;26.65;14.93;;;;;;;3.87;100.00;100174.77;1653200;86;21081;-58
2022/12/24 09:22:05;;;;;;;26.15;13.58;;;;;;;3.87;100.00;100186.37;1652738;86;21111;-60
2022/12/24 09:24:35;;;;;;;26.00;16.23;;;;;;;3.86;100.00;100179.56;1653540;86;21076;-61
2022/12/24 09:27:02;;;;;;;26.75;15.55;;;;;;;3.87;100.00;100172.99;1652527;86;21085;-60
2022/12/24 09:29:30;;;;;;;24.32;15.43;;;;;;;3.92;100.00;100175.14;1653084;86;21328;-60
2022/12/24 09:31:59;;;;;;;27.85;15.40;;;;;;;3.97;100.00;100172.94;1652780;86;20962;-61
2022/12/24 09:34:26;;;;;;;26.95;15.40;;;;;;;4.06;100.00;100173.88;1653110;86;21489;-60
2022/12/24 09:36:53;;;;;;;26.33;15.83;;;;;;;4.14;100.00;100172.19;1653510;86;21089;-61
2022/12/24 09:39:21;;;;;;;29.57;14.87;;;;;;;4.24;100.00;100170.03;1652817;86;21554;-59
2022/12/24 09:42:24;;;;;;;31.27;15.55;;;;;;;4.30;100.00;100172.05;1653308;86;21781;-61
2022/12/24 09:45:06;;;;;;;26.48;15.53;;;;;;;4.37;100.00;100166.64;1656917;86;21535;-59
2022/12/24 09:47:40;;;;;;;31.23;15.43;;;;;;;4.44;100.00;100162.53;1656746;86;21505;-60
2022/12/24 09:50:25;;;;;;;28.83;16.55;;;;;;;4.52;100.00;100169.06;1656723;86;21487;-59
2022/12/24 09:52:53;;;;;;;27.40;15.00;;;;;;;4.58;100.00;100162.48;1640317;86;21175;-64
2022/12/24 09:55:34;;;;;;;28.42;15.23;;;;;;;4.62;100.00;100153.48;1652518;86;22268;-59
2022/12/24 09:58:02;;;;;;;23.77;14.15;;;;;;;4.68;100.00;100157.27;1651278;86;21310;-60
2022/12/24 10:00:32;;;;;;;26.17;14.60;;;;;;;4.71;100.00;100153.91;1653084;86;21124;-58
2022/12/24 10:02:59;;;;;;;29.23;16.37;;;;;;;4.69;100.00;100155.81;1652339;86;21495;-62
2022/12/24 10:06:06;;;;;;;27.32;16.20;;;;;;;4.66;100.00;100157.88;1653120;86;21293;-58
2022/12/24 10:08:41;;;;;;;31.37;16.07;;;;;;;4.63;100.00;100149.97;1683248;85;21317;-60
2022/12/24 10:11:28;;;;;;;36.63;17.45;;;;;;;4.64;100.00;100153.69;1683621;85;21142;-60
2022/12/24 10:14:30;;;;;;;24.80;13.87;;;;;;;4.70;100.00;100151.46;1682956;85;21519;-63
2022/12/24 10:17:22;;;;;;;25.00;13.95;;;;;;;4.77;100.00;100149.91;1683732;85;21701;-59
2022/12/24 10:20:03;;;;;;;27.73;14.10;;;;;;;4.82;100.00;100143.36;1683712;85;21133;-60
2022/12/24 10:23:08;;;;;;;27.80;16.40;;;;;;;4.90;100.00;100139.23;1682880;84;22059;-60
2022/12/24 10:25:49;;;;;;;27.00;15.90;;;;;;;4.90;100.00;100147.78;1682817;85;21203;-61
2022/12/24 10:28:20;;;;;;;29.42;15.93;;;;;;;4.88;100.00;100134.19;1683232;85;21129;-61
2022/12/24 10:30:48;;;;;;;23.70;14.53;;;;;;;4.91;100.00;100136.48;1683208;85;21065;-61
2022/12/24 10:33:23;;;;;;;22.80;13.03;;;;;;;4.96;100.00;100134.25;1661335;85;21004;-62
2022/12/24 10:35:53;;;;;;;27.10;15.30;;;;;;;5.01;100.00;100133.34;1680187;85;21269;-62
2022/12/24 10:38:20;;;;;;;28.10;15.17;;;;;;;5.07;100.00;100137.09;1683459;85;22149;-60
2022/12/24 10:40:50;;;;;;;28.83;16.23;;;;;;;5.08;100.00;100138.25;1683558;85;21204;-60
2022/12/24 10:43:20;;;;;;;28.43;15.83;;;;;;;5.12;100.00;100140.86;1682969;85;21212;-64
2022/12/24 10:45:58;;;;;;;27.37;15.27;;;;;;;5.16;100.00;100137.50;1683145;85;21629;-59
2022/12/24 10:48:30;;;;;;;28.63;15.10;;;;;;;5.22;100.00;100129.61;1683126;85;21928;-59
2022/12/24 10:51:14;;;;;;;28.93;15.53;;;;;;;5.23;100.00;100124.79;1680520;84;21203;-63
2022/12/24 10:53:57;;;;;;;24.17;13.93;;;;;;;5.26;100.00;100133.50;1682911;85;21682;-60
2022/12/24 10:56:25;;;;;;;27.43;15.30;;;;;;;5.31;100.00;100128.23;1682969;85;21319;-62
2022/12/24 10:58:53;;;;;;;24.70;15.37;;;;;;;5.36;100.00;100125.98;1683518;85;21344;-64
2022/12/24 11:01:23;;;;;;;28.57;16.13;;;;;;;5.42;100.00;100127.17;1683634;85;21954;-60
2022/12/24 11:04:00;;;;;;;29.60;16.50;;;;;;;5.44;100.00;100125.22;1658051;85;21260;-60
2022/12/24 11:06:27;;;;;;;29.87;16.63;;;;;;;5.53;100.00;100129.49;1682904;85;21331;-60
2022/12/24 11:08:56;;;;;;;26.40;15.63;;;;;;;5.60;100.00;100127.08;1683553;85;21777;-64
2022/12/24 11:11:23;;;;;;;25.33;15.63;;;;;;;5.57;100.00;100131.30;1615703;85;21535;-61
2022/12/24 11:13:55;;;;;;;27.63;15.53;;;;;;;5.57;100.00;100130.81;1684046;84;21067;-60
2022/12/24 11:16:32;;;;;;;27.47;16.43;;;;;;;5.58;100.00;100132.42;1683648;85;21120;-61
2022/12/24 11:19:02;;;;;;;27.13;15.80;;;;;;;5.61;100.00;100130.02;1683176;85;21320;-61
2022/12/24 11:21:32;;;;;;;26.87;14.97;;;;;;;5.61;100.00;100133.41;1684066;84;21284;-60
2022/12/24 11:24:16;;;;;;;26.52;15.58;;;;;;;5.64;100.00;100140.52;1684340;85;21201;-64
2022/12/24 11:26:44;;;;;;;27.43;15.87;;;;;;;5.66;100.00;100138.61;1680883;84;21985;-61
2022/12/24 11:29:20;;;;;;;28.13;16.50;;;;;;;5.63;100.00;100142.78;1684246;85;21209;-60
2022/12/24 11:31:48;;;;;;;29.43;16.67;;;;;;;5.56;100.00;100138.21;1683379;85;21652;-61
2022/12/24 11:34:29;;;;;;;34.90;21.00;;;;;;;5.50;100.00;100141.43;1683560;85;21185;-61
2022/12/24 11:37:23;;;;;;;32.30;17.13;;;;;;;5.45;100.00;100140.25;1684257;85;21676;-60
2022/12/24 11:39:55;;;;;;;28.80;16.03;;;;;;;5.44;100.00;100140.73;1683385;84;21334;-60